createdAt,value
2023-01-22T00:01:48.387Z,102052.31
2023-01-22T00:04:16.901Z,102056.63
2023-01-22T00:06:45.227Z,102054.50
2023-01-22T00:09:15.773Z,102052.69
2023-01-22T00:11:45.072Z,102057.75
2023-01-22T00:14:13.511Z,102050.63
2023-01-22T00:16:42.499Z,102058.81
2023-01-22T00:19:11.432Z,102053.09
2023-01-22T00:21:38.728Z,102059.38
2023-01-22T00:24:07.840Z,102063.75
2023-01-22T00:26:37.623Z,102059.97
2023-01-22T00:29:08.170Z,102054.34
2023-01-22T00:31:37.783Z,102055.78
2023-01-22T00:34:09.169Z,102052.88
2023-01-22T00:36:41.808Z,102061.53
2023-01-22T00:39:11.596Z,102052.75
2023-01-22T00:41:42.757Z,102060.19
2023-01-22T00:44:12.761Z,102061.47
2023-01-22T00:46:42.589Z,102053.78
2023-01-22T00:49:12.973Z,102062.81
2023-01-22T00:51:42.937Z,102074.41
2023-01-22T00:54:12.877Z,102064.50
2023-01-22T00:56:42.788Z,102066.59
2023-01-22T00:59:12.464Z,102067.97
2023-01-22T01:01:42.344Z,102064.16
2023-01-22T01:04:13.742Z,102053.16
2023-01-22T01:06:43.815Z,102058.91
2023-01-22T01:09:13.776Z,102060.59
2023-01-22T01:11:43.640Z,102066.66
2023-01-22T01:14:13.311Z,102070.06
2023-01-22T01:16:43.620Z,102069.81
2023-01-22T01:19:13.809Z,102072.28
2023-01-22T01:21:44.457Z,102072.34
2023-01-22T01:24:15.066Z,102074.25
2023-01-22T01:26:44.581Z,102081.75
2023-01-22T01:29:15.728Z,102076.50
2023-01-22T01:31:44.363Z,102084.50
2023-01-22T01:34:14.378Z,102080.06
2023-01-22T01:36:49.216Z,102084.34
2023-01-22T01:39:19.782Z,102084.16
2023-01-22T01:41:50.471Z,102084.34
2023-01-22T01:44:24.320Z,102081.81
2023-01-22T01:47:16.902Z,102086.44
2023-01-22T01:49:53.977Z,102087.44
2023-01-22T01:52:23.325Z,102087.66
2023-01-22T01:54:58.528Z,102089.06
2023-01-22T01:57:35.195Z,102094.13
2023-01-22T02:00:14.415Z,102104.28
2023-01-22T02:02:45.303Z,102098.31
2023-01-22T02:05:15.226Z,102098.75
2023-01-22T02:07:45.274Z,102107.78
2023-01-22T02:10:15.780Z,102103.16
2023-01-22T02:12:45.068Z,102104.38
2023-01-22T02:15:15.269Z,102104.44
2023-01-22T02:17:48.290Z,102096.66
2023-01-22T02:20:19.079Z,102095.19
2023-01-22T02:22:49.938Z,102097.75
2023-01-22T02:25:20.468Z,102095.91
2023-01-22T02:27:50.531Z,102097.75
2023-01-22T02:30:20.820Z,102097.13
2023-01-22T02:32:51.093Z,102096.47
2023-01-22T02:35:21.323Z,102100.94
2023-01-22T02:37:51.453Z,102095.06
2023-01-22T02:40:22.122Z,102091.28
2023-01-22T02:42:52.219Z,102091.66
2023-01-22T02:45:23.845Z,102095.06
2023-01-22T02:47:53.956Z,102103.66
2023-01-22T02:50:24.002Z,102094.66
2023-01-22T02:52:54.077Z,102096.91
2023-01-22T02:55:24.163Z,102098.41
2023-01-22T02:57:54.343Z,102092.53
2023-01-22T03:00:24.918Z,102093.16
2023-01-22T03:02:55.026Z,102099.69
2023-01-22T03:05:25.438Z,102107.38
2023-01-22T03:07:55.566Z,102109.50
2023-01-22T03:10:26.033Z,102114.75
2023-01-22T03:13:14.927Z,102110.28
2023-01-22T03:16:03.394Z,102106.47
2023-01-22T03:18:51.007Z,102111.75
2023-01-22T03:21:21.206Z,102108.78
2023-01-22T03:23:55.689Z,102121.84
2023-01-22T03:26:28.934Z,102118.31
2023-01-22T03:28:59.050Z,102123.59
2023-01-22T03:31:29.181Z,102124.63
2023-01-22T03:33:59.372Z,102116.38
2023-01-22T03:36:29.422Z,102110.34
2023-01-22T03:39:00.703Z,102112.69
2023-01-22T03:41:30.764Z,102106.38
2023-01-22T03:44:03.813Z,102119.38
2023-01-22T03:46:34.802Z,102111.59
2023-01-22T03:49:04.940Z,102118.69
2023-01-22T03:51:35.711Z,102113.44
2023-01-22T03:54:06.055Z,102118.53
2023-01-22T03:56:36.055Z,102119.81
2023-01-22T03:59:06.539Z,102126.28
2023-01-22T04:01:35.779Z,102133.03
2023-01-22T04:04:03.528Z,102129.22
2023-01-22T04:06:31.465Z,102124.97
2023-01-22T04:08:59.798Z,102118.69
2023-01-22T04:11:28.204Z,102117.00
2023-01-22T04:13:56.887Z,102122.50
2023-01-22T04:16:25.078Z,102119.16
2023-01-22T04:18:53.462Z,102133.59
2023-01-22T04:21:21.872Z,102137.00
2023-01-22T04:23:50.227Z,102138.88
2023-01-22T04:26:19.075Z,102140.28
2023-01-22T04:28:47.201Z,102145.75
2023-01-22T04:31:15.681Z,102148.75
2023-01-22T04:33:44.137Z,102155.22
2023-01-22T04:36:12.414Z,102152.28
2023-01-22T04:38:40.836Z,102152.66
2023-01-22T04:41:09.294Z,102148.50
2023-01-22T04:43:37.868Z,102155.78
2023-01-22T04:46:06.261Z,102156.25
2023-01-22T04:48:34.582Z,102157.63
2023-01-22T04:51:02.960Z,102155.59
2023-01-22T04:53:31.550Z,102159.22
2023-01-22T04:55:59.815Z,102166.97
2023-01-22T04:58:28.370Z,102168.41
2023-01-22T05:00:58.106Z,102165.34
2023-01-22T05:03:28.113Z,102178.41
2023-01-22T05:05:56.524Z,102182.84
2023-01-22T05:08:24.936Z,102178.09
2023-01-22T05:10:53.247Z,102180.41
2023-01-22T05:13:21.705Z,102176.31
2023-01-22T05:15:50.156Z,102186.59
2023-01-22T05:18:18.501Z,102187.78
2023-01-22T05:20:46.948Z,102192.69
2023-01-22T05:23:15.317Z,102194.63
2023-01-22T05:25:50.017Z,102196.28
2023-01-22T05:28:20.151Z,102206.59
2023-01-22T05:30:50.399Z,102202.19
2023-01-22T05:33:20.523Z,102200.50
2023-01-22T05:36:02.859Z,102197.31
2023-01-22T05:38:33.086Z,102202.81
2023-01-22T05:41:03.070Z,102201.31
2023-01-22T05:43:33.093Z,102207.00
2023-01-22T05:46:03.236Z,102212.66
2023-01-22T05:48:33.471Z,102213.91
2023-01-22T05:51:06.862Z,102219.16
2023-01-22T05:53:37.180Z,102220.66
2023-01-22T05:56:07.579Z,102226.78
2023-01-22T05:58:37.848Z,102221.88
2023-01-22T06:01:08.330Z,102229.88
2023-01-22T06:03:38.941Z,102224.22
2023-01-22T06:06:14.384Z,102221.00
2023-01-22T06:08:49.125Z,102232.34
2023-01-22T06:11:19.843Z,102226.09
2023-01-22T06:13:49.927Z,102234.50
2023-01-22T06:16:21.076Z,102238.22
2023-01-22T06:18:51.091Z,102244.81
2023-01-22T06:21:21.083Z,102243.31
2023-01-22T06:23:51.167Z,102245.06
2023-01-22T06:26:21.241Z,102242.53
2023-01-22T06:28:51.286Z,102245.88
2023-01-22T06:31:21.514Z,102243.16
2023-01-22T06:33:49.998Z,102252.19
2023-01-22T06:36:18.227Z,102247.38
2023-01-22T06:38:46.652Z,102249.69
2023-01-22T06:41:15.232Z,102245.50
2023-01-22T06:43:43.631Z,102249.69
2023-01-22T06:46:11.943Z,102250.75
2023-01-22T06:48:43.620Z,102260.19
2023-01-22T06:51:13.078Z,102253.69
2023-01-22T06:53:40.576Z,102247.19
2023-01-22T06:56:09.193Z,102246.53
2023-01-22T06:58:37.300Z,102244.88
2023-01-22T07:01:06.485Z,102245.72
2023-01-22T07:03:34.303Z,102249.91
2023-01-22T07:06:05.057Z,102259.78
2023-01-22T07:08:35.544Z,102264.34
2023-01-22T07:11:07.839Z,102278.19
2023-01-22T07:13:38.337Z,102281.88
2023-01-22T07:16:09.058Z,102284.44
2023-01-22T07:18:39.172Z,102285.50
2023-01-22T07:21:12.280Z,102292.88
2023-01-22T07:23:42.422Z,102291.22
2023-01-22T07:26:12.583Z,102289.97
2023-01-22T07:28:45.449Z,102296.06
2023-01-22T07:31:15.700Z,102296.41
2023-01-22T07:33:45.785Z,102302.69
2023-01-22T07:36:15.800Z,102309.22
2023-01-22T07:38:46.016Z,102305.69
2023-01-22T07:41:25.568Z,102310.91
2023-01-22T07:43:57.690Z,102322.88
2023-01-22T07:46:26.483Z,102312.44
2023-01-22T07:48:56.065Z,102312.78
2023-01-22T07:51:23.321Z,102320.56
2023-01-22T07:53:53.432Z,102329.59
2023-01-22T07:56:23.771Z,102323.50
2023-01-22T07:58:53.901Z,102327.47
2023-01-22T08:01:23.920Z,102330.81
2023-01-22T08:03:52.436Z,102324.66
2023-01-22T08:06:20.896Z,102334.31
2023-01-22T08:08:49.846Z,102336.88
2023-01-22T08:11:17.616Z,102329.84
2023-01-22T08:13:46.044Z,102338.09
2023-01-22T08:16:14.456Z,102335.34
2023-01-22T08:18:42.841Z,102346.69
2023-01-22T08:21:11.344Z,102339.38
2023-01-22T08:23:39.699Z,102340.03
2023-01-22T08:26:08.168Z,102344.38
2023-01-22T08:28:36.996Z,102350.84
2023-01-22T08:31:06.585Z,102354.69
2023-01-22T08:33:36.406Z,102352.59
2023-01-22T08:36:06.356Z,102358.91
2023-01-22T08:38:36.234Z,102362.63
2023-01-22T08:41:04.963Z,102364.53
2023-01-22T08:43:33.061Z,102362.03
2023-01-22T08:46:01.442Z,102364.50
2023-01-22T08:48:29.972Z,102368.25
2023-01-22T08:51:01.285Z,102363.03
2023-01-22T08:53:31.322Z,102372.56
2023-01-22T08:56:01.320Z,102373.59
2023-01-22T08:58:31.393Z,102385.78
2023-01-22T09:01:01.486Z,102387.38
2023-01-22T09:03:31.633Z,102386.97
2023-01-22T09:06:01.604Z,102391.19
2023-01-22T09:08:32.039Z,102393.75
2023-01-22T09:11:05.942Z,102391.84
2023-01-22T09:13:35.996Z,102397.06
2023-01-22T09:16:10.843Z,102399.97
2023-01-22T09:18:40.976Z,102398.34
2023-01-22T09:21:10.989Z,102410.94
2023-01-22T09:23:41.096Z,102395.53
2023-01-22T09:26:12.152Z,102394.94
2023-01-22T09:28:42.215Z,102404.78
2023-01-22T09:31:13.995Z,102413.00
2023-01-22T09:33:44.153Z,102405.84
2023-01-22T09:36:17.016Z,102413.59
2023-01-22T09:38:47.199Z,102421.00
2023-01-22T09:41:37.839Z,102424.59
2023-01-22T09:44:30.238Z,102424.63
2023-01-22T09:47:51.602Z,102428.13
2023-01-22T09:50:26.095Z,102424.28
2023-01-22T09:53:05.076Z,102425.31
2023-01-22T09:55:47.428Z,102425.19
2023-01-22T09:58:22.128Z,102426.06
2023-01-22T10:01:01.642Z,102422.69
2023-01-22T10:04:03.339Z,102420.34
2023-01-22T10:06:31.724Z,102421.47
2023-01-22T10:09:20.779Z,102424.19
2023-01-22T10:11:55.895Z,102423.13
2023-01-22T10:14:30.868Z,102425.97
2023-01-22T10:17:03.939Z,102425.38
2023-01-22T10:19:52.444Z,102428.13
2023-01-22T10:22:26.915Z,102425.00
2023-01-22T10:24:55.856Z,102428.97
2023-01-22T10:27:42.001Z,102426.44
2023-01-22T10:30:25.256Z,102427.97
2023-01-22T10:33:07.003Z,102428.00
2023-01-22T10:35:56.749Z,102430.81
2023-01-22T10:38:31.371Z,102427.22
2023-01-22T10:41:04.764Z,102438.78
2023-01-22T10:43:39.479Z,102435.19
2023-01-22T10:46:26.304Z,102429.25
2023-01-22T10:49:06.449Z,102429.56
2023-01-22T10:51:49.221Z,102427.91
2023-01-22T10:54:46.023Z,102420.78
2023-01-22T10:57:21.906Z,102423.47
2023-01-22T11:00:15.862Z,102418.00
2023-01-22T11:02:51.180Z,102424.63
2023-01-22T11:05:33.834Z,102418.59
2023-01-22T11:08:18.286Z,102419.88
2023-01-22T11:11:04.493Z,102431.63
2023-01-22T11:14:06.436Z,102429.72
2023-01-22T11:16:42.581Z,102428.03
2023-01-22T11:19:36.578Z,102429.63
2023-01-22T11:22:33.498Z,102435.09
2023-01-22T11:25:09.249Z,102426.53
2023-01-22T11:28:12.607Z,102423.72
2023-01-22T11:31:29.657Z,102427.94
2023-01-22T11:34:43.439Z,102426.47
2023-01-22T11:37:54.733Z,102425.53
2023-01-22T11:40:54.398Z,102431.91
2023-01-22T11:43:55.689Z,102424.97
2023-01-22T11:47:07.196Z,102430.22
2023-01-22T11:50:21.003Z,102418.25
2023-01-22T11:53:36.470Z,102412.22
2023-01-22T11:57:00.594Z,102423.41
2023-01-22T11:59:55.381Z,102418.00
2023-01-22T12:03:11.799Z,102423.94
2023-01-22T12:06:13.144Z,102421.56
2023-01-22T12:09:08.917Z,102419.56
2023-01-22T12:12:23.765Z,102428.84
2023-01-22T12:15:56.698Z,102427.34
2023-01-22T12:19:12.041Z,102426.03
2023-01-22T12:22:00.129Z,102425.28
2023-01-22T12:25:10.429Z,102426.94
2023-01-22T12:28:01.295Z,102428.28
2023-01-22T12:30:49.651Z,102429.09
2023-01-22T12:33:28.539Z,102429.16
2023-01-22T12:36:06.293Z,102430.19
2023-01-22T12:39:16.502Z,102423.78
2023-01-22T12:42:16.095Z,102427.75
2023-01-22T12:45:41.604Z,102434.56
2023-01-22T12:48:54.857Z,102432.03
2023-01-22T12:51:46.873Z,102429.72
2023-01-22T12:54:36.488Z,102432.56
2023-01-22T12:57:25.500Z,102432.09
2023-01-22T12:59:57.994Z,102429.31
2023-01-22T13:02:35.565Z,102426.31
2023-01-22T13:05:26.426Z,102425.91
2023-01-22T13:08:42.222Z,102420.84
2023-01-22T13:11:35.710Z,102428.47
2023-01-22T13:14:28.329Z,102431.47
2023-01-22T13:17:20.768Z,102437.97
2023-01-22T13:19:53.003Z,102431.25
2023-01-22T13:22:28.053Z,102435.03
2023-01-22T13:25:00.149Z,102430.44
2023-01-22T13:27:36.359Z,102430.31
2023-01-22T13:30:31.097Z,102428.00
2023-01-22T13:33:16.540Z,102431.63
2023-01-22T13:35:47.417Z,102439.78
2023-01-22T13:38:32.710Z,102438.28
2023-01-22T13:41:23.617Z,102441.06
2023-01-22T13:43:54.011Z,102443.38
2023-01-22T13:46:26.876Z,102434.09
2023-01-22T13:49:10.672Z,102439.41
2023-01-22T13:51:43.365Z,102441.94
2023-01-22T13:54:24.143Z,102446.72
2023-01-22T13:56:54.529Z,102442.50
2023-01-22T13:59:35.098Z,102441.03
2023-01-22T14:02:21.999Z,102433.22
2023-01-22T14:04:52.133Z,102446.66
2023-01-22T14:07:38.011Z,102439.56
2023-01-22T14:10:24.797Z,102446.16
2023-01-22T14:13:08.512Z,102448.06
2023-01-22T14:15:41.606Z,102447.63
2023-01-22T14:18:18.532Z,102446.78
2023-01-22T14:20:49.223Z,102457.09
2023-01-22T14:23:19.352Z,102450.16
2023-01-22T14:25:54.135Z,102455.00
2023-01-22T14:28:28.796Z,102458.97
2023-01-22T14:30:59.972Z,102452.91
2023-01-22T14:33:35.076Z,102453.16
2023-01-22T14:36:05.796Z,102462.97
2023-01-22T14:38:35.903Z,102463.81
2023-01-22T14:41:07.814Z,102472.50
2023-01-22T14:43:37.949Z,102478.53
2023-01-22T14:46:09.234Z,102480.72
2023-01-22T14:48:39.526Z,102473.34
2023-01-22T14:51:11.916Z,102474.38
2023-01-22T14:53:42.014Z,102475.00
2023-01-22T14:56:12.235Z,102475.44
2023-01-22T14:58:42.327Z,102474.81
2023-01-22T15:01:21.850Z,102476.50
2023-01-22T15:03:53.313Z,102478.38
2023-01-22T15:06:26.555Z,102477.31
2023-01-22T15:08:57.510Z,102478.59
2023-01-22T15:11:27.619Z,102482.16
2023-01-22T15:13:55.986Z,102491.22
2023-01-22T15:16:24.555Z,102478.41
2023-01-22T15:18:58.885Z,102487.03
2023-01-22T15:21:28.967Z,102470.03
2023-01-22T15:24:01.194Z,102493.97
2023-01-22T15:26:36.595Z,102486.00
2023-01-22T15:29:12.619Z,102500.72
2023-01-22T15:31:43.125Z,102500.72
2023-01-22T15:34:13.371Z,102504.91
2023-01-22T15:36:43.451Z,102505.13
2023-01-22T15:39:13.512Z,102511.41
2023-01-22T15:41:44.422Z,102507.88
2023-01-22T15:44:14.973Z,102505.56
2023-01-22T15:46:46.383Z,102515.00
2023-01-22T15:49:18.225Z,102522.16
2023-01-22T15:51:48.289Z,102520.88
2023-01-22T15:54:18.685Z,102521.72
2023-01-22T15:56:48.764Z,102532.47
2023-01-22T15:59:19.864Z,102529.94
2023-01-22T16:01:50.022Z,102536.88
2023-01-22T16:04:20.167Z,102546.13
2023-01-22T16:06:51.550Z,102545.91
2023-01-22T16:09:21.614Z,102546.09
2023-01-22T16:11:52.629Z,102546.13
2023-01-22T16:14:22.837Z,102548.63
2023-01-22T16:16:52.972Z,102556.16
2023-01-22T16:19:23.053Z,102551.16
2023-01-22T16:21:56.155Z,102552.44
2023-01-22T16:24:26.324Z,102552.19
2023-01-22T16:26:56.381Z,102552.56
2023-01-22T16:29:26.478Z,102558.69
2023-01-22T16:31:56.934Z,102559.53
2023-01-22T16:34:27.149Z,102562.47
2023-01-22T16:37:00.024Z,102560.16
2023-01-22T16:39:28.786Z,102569.00
2023-01-22T16:41:57.114Z,102558.72
2023-01-22T16:44:27.294Z,102565.19
2023-01-22T16:46:59.960Z,102576.56
2023-01-22T16:49:33.911Z,102568.19
2023-01-22T16:52:22.032Z,102569.66
2023-01-22T16:54:52.239Z,102570.66
2023-01-22T16:57:22.268Z,102580.16
2023-01-22T16:59:52.296Z,102576.16
2023-01-22T17:02:22.379Z,102573.88
2023-01-22T17:04:53.414Z,102581.66
2023-01-22T17:07:33.108Z,102588.16
2023-01-22T17:10:03.719Z,102586.28
2023-01-22T17:12:33.767Z,102588.78
2023-01-22T17:15:01.952Z,102585.44
2023-01-22T17:17:29.109Z,102597.00
2023-01-22T17:19:57.521Z,102586.69
2023-01-22T17:22:26.708Z,102590.28
2023-01-22T17:24:54.451Z,102596.78
2023-01-22T17:27:25.779Z,102601.22
2023-01-22T17:29:55.889Z,102598.69
2023-01-22T17:32:26.616Z,102602.44
2023-01-22T17:34:56.688Z,102603.28
2023-01-22T17:37:26.366Z,102597.41
2023-01-22T17:39:56.283Z,102607.91
2023-01-22T17:42:26.398Z,102613.81
2023-01-22T17:44:56.070Z,102616.75
2023-01-22T17:47:25.918Z,102624.75
2023-01-22T17:49:58.587Z,102620.75
2023-01-22T17:52:28.104Z,102620.13
2023-01-22T17:54:57.954Z,102626.22
2023-01-22T17:57:27.684Z,102623.03
2023-01-22T17:59:57.529Z,102620.75
2023-01-22T18:02:27.252Z,102618.00
2023-01-22T18:04:57.054Z,102612.75
2023-01-22T18:07:26.930Z,102627.69
2023-01-22T18:09:56.806Z,102624.50
2023-01-22T18:12:26.618Z,102626.41
2023-01-22T18:14:56.427Z,102624.72
2023-01-22T18:17:26.591Z,102619.69
2023-01-22T18:19:55.928Z,102621.38
2023-01-22T18:22:26.105Z,102623.47
2023-01-22T18:24:59.121Z,102621.59
2023-01-22T18:27:27.247Z,102623.03
2023-01-22T18:29:56.422Z,102633.78
2023-01-22T18:32:26.291Z,102633.56
2023-01-22T18:34:56.006Z,102634.41
2023-01-22T18:37:25.818Z,102638.41
2023-01-22T18:39:55.502Z,102635.03
2023-01-22T18:42:25.628Z,102636.31
2023-01-22T18:44:56.531Z,102631.25
2023-01-22T18:47:26.679Z,102635.66
2023-01-22T18:49:56.397Z,102635.66
2023-01-22T18:52:27.327Z,102635.44
2023-01-22T18:54:57.347Z,102637.13
2023-01-22T18:57:30.129Z,102632.72
2023-01-22T19:00:00.166Z,102637.78
2023-01-22T19:02:29.879Z,102639.63
2023-01-22T19:04:59.706Z,102640.28
2023-01-22T19:07:29.520Z,102640.69
2023-01-22T19:09:59.690Z,102643.63
2023-01-22T19:12:29.709Z,102639.63
2023-01-22T19:14:59.482Z,102645.72
2023-01-22T19:17:29.278Z,102647.44
2023-01-22T19:19:59.004Z,102642.81
2023-01-22T19:22:29.012Z,102635.66
2023-01-22T19:24:58.975Z,102638.41
2023-01-22T19:27:33.657Z,102642.81
2023-01-22T19:30:02.076Z,102650.78
2023-01-22T19:32:35.058Z,102671.81
2023-01-22T19:35:07.015Z,102670.75
2023-01-22T19:37:34.786Z,102665.28
2023-01-22T19:40:04.170Z,102676.22
2023-01-22T19:42:32.197Z,102667.81
2023-01-22T19:44:59.884Z,102669.50
2023-01-22T19:47:28.636Z,102677.47
2023-01-22T19:49:58.211Z,102675.78
2023-01-22T19:52:28.597Z,102674.34
2023-01-22T19:54:57.900Z,102672.63
2023-01-22T19:57:30.172Z,102676.41
2023-01-22T20:00:00.774Z,102674.53
2023-01-22T20:02:28.787Z,102678.94
2023-01-22T20:04:58.809Z,102684.41
2023-01-22T20:07:28.594Z,102684.41
2023-01-22T20:09:58.560Z,102688.84
2023-01-22T20:12:28.719Z,102687.13
2023-01-22T20:14:58.388Z,102690.72
2023-01-22T20:17:28.273Z,102695.75
2023-01-22T20:19:58.052Z,102701.63
2023-01-22T20:22:25.179Z,102703.53
2023-01-22T20:24:53.366Z,102715.09
2023-01-22T20:27:23.144Z,102706.25
2023-01-22T20:29:53.237Z,102708.16
2023-01-22T20:32:23.127Z,102714.69
2023-01-22T20:34:53.382Z,102715.72
2023-01-22T20:37:23.624Z,102719.09
2023-01-22T20:39:53.585Z,102722.03
2023-01-22T20:42:23.634Z,102725.41
2023-01-22T20:44:53.396Z,102731.72
2023-01-22T20:47:24.064Z,102737.63
2023-01-22T20:49:53.293Z,102733.81
2023-01-22T20:52:23.224Z,102735.09
2023-01-22T20:55:01.496Z,102732.56
2023-01-22T20:57:32.640Z,102742.41
2023-01-22T21:00:04.754Z,102738.84
2023-01-22T21:02:33.724Z,102737.78
2023-01-22T21:05:04.513Z,102745.16
2023-01-22T21:07:34.840Z,102741.59
2023-01-22T21:10:05.132Z,102750.00
2023-01-22T21:12:34.829Z,102753.34
2023-01-22T21:15:05.982Z,102760.31
2023-01-22T21:17:36.000Z,102761.38
2023-01-22T21:20:07.197Z,102763.03
2023-01-22T21:22:37.341Z,102766.84
2023-01-22T21:25:08.205Z,102763.69
2023-01-22T21:27:38.009Z,102766.19
2023-01-22T21:30:09.268Z,102769.97
2023-01-22T21:32:38.966Z,102766.41
2023-01-22T21:35:10.716Z,102760.31
2023-01-22T21:37:39.397Z,102757.78
2023-01-22T21:40:13.346Z,102759.25
2023-01-22T21:43:02.756Z,102757.16
2023-01-22T21:45:50.463Z,102759.03
2023-01-22T21:48:20.586Z,102757.97
2023-01-22T21:50:50.441Z,102765.78
2023-01-22T21:53:20.363Z,102767.25
2023-01-22T21:55:53.160Z,102770.38
2023-01-22T21:58:23.182Z,102759.47
2023-01-22T22:00:54.818Z,102765.34
2023-01-22T22:03:24.993Z,102769.34
2023-01-22T22:06:02.123Z,102768.28
2023-01-22T22:08:32.556Z,102775.00
2023-01-22T22:11:03.826Z,102776.66
2023-01-22T22:13:35.699Z,102778.78
2023-01-22T22:16:10.265Z,102776.66
2023-01-22T22:18:40.977Z,102778.56
2023-01-22T22:21:09.384Z,102775.84
2023-01-22T22:23:37.788Z,102781.91
2023-01-22T22:26:10.132Z,102793.69
2023-01-22T22:28:39.943Z,102791.84
2023-01-22T22:31:16.378Z,102801.31
2023-01-22T22:33:52.796Z,102797.50
2023-01-22T22:36:28.708Z,102805.69
2023-01-22T22:39:01.287Z,102802.75
2023-01-22T22:41:36.193Z,102805.69
2023-01-22T22:44:08.205Z,102801.69
2023-01-22T22:46:40.355Z,102807.16
2023-01-22T22:49:14.054Z,102811.78
2023-01-22T22:51:46.162Z,102809.03
2023-01-22T22:54:19.388Z,102807.34
2023-01-22T22:56:49.895Z,102807.59
2023-01-22T22:59:21.084Z,102803.41
2023-01-22T23:01:51.829Z,102811.16
2023-01-22T23:04:21.822Z,102807.59
2023-01-22T23:06:52.129Z,102801.28
2023-01-22T23:09:22.437Z,102809.69
2023-01-22T23:11:53.318Z,102803.81
2023-01-22T23:14:23.878Z,102803.81
2023-01-22T23:16:53.836Z,102803.41
2023-01-22T23:19:27.377Z,102801.28
2023-01-22T23:22:01.598Z,102806.13
2023-01-22T23:24:29.662Z,102813.25
2023-01-22T23:26:59.516Z,102810.97
2023-01-22T23:29:29.583Z,102821.03
2023-01-22T23:31:59.692Z,102827.34
2023-01-22T23:34:29.528Z,102832.41
2023-01-22T23:36:59.556Z,102833.09
2023-01-22T23:39:29.281Z,102833.47
2023-01-22T23:41:59.196Z,102843.97
2023-01-22T23:44:28.943Z,102841.88
2023-01-22T23:46:58.763Z,102843.97
2023-01-22T23:49:28.676Z,102852.13
2023-01-22T23:51:58.482Z,102844.13
2023-01-22T23:54:28.804Z,102859.47
2023-01-22T23:56:58.059Z,102854.03
2023-01-22T23:59:27.940Z,102848.97
